createdAt,value
2023-03-08T00:00:34.178Z,77.55
2023-03-08T00:05:39.377Z,77.46
2023-03-08T00:10:44.081Z,78.16
2023-03-08T00:15:47.406Z,78.25
2023-03-08T00:21:00.296Z,78.04
2023-03-08T00:26:05.108Z,78.10
2023-03-08T00:31:10.396Z,78.50
2023-03-08T00:36:16.618Z,78.92
2023-03-08T00:41:21.641Z,79.01
2023-03-08T00:46:26.157Z,81.25
2023-03-08T00:51:29.409Z,80.65
2023-03-08T00:56:34.144Z,80.17
2023-03-08T01:01:37.531Z,79.69
2023-03-08T01:06:40.894Z,80.19
2023-03-08T01:11:45.541Z,80.83
2023-03-08T01:16:48.757Z,80.34
2023-03-08T01:21:52.042Z,80.41
2023-03-08T01:26:59.092Z,79.15
2023-03-08T01:32:02.302Z,78.45
2023-03-08T01:37:06.126Z,77.83
2023-03-08T01:42:11.009Z,77.58
2023-03-08T01:47:18.798Z,76.43
2023-03-08T01:52:27.222Z,76.28
2023-03-08T01:57:34.585Z,76.29
2023-03-08T02:02:42.698Z,76.29
2023-03-08T02:07:45.850Z,75.95
2023-03-08T02:12:50.480Z,76.04
2023-03-08T02:17:53.695Z,75.68
2023-03-08T02:23:08.935Z,75.75
2023-03-08T02:28:12.217Z,75.56
2023-03-08T02:33:15.540Z,75.41
2023-03-08T02:38:21.889Z,74.63
2023-03-08T02:43:25.433Z,75.46
2023-03-08T02:48:28.801Z,74.87
2023-03-08T02:53:33.497Z,74.61
2023-03-08T02:58:36.795Z,74.30
2023-03-08T03:03:40.353Z,74.21
2023-03-08T03:08:45.154Z,74.77
2023-03-08T03:13:48.078Z,75.33
2023-03-08T03:18:51.327Z,76.32
2023-03-08T03:23:57.049Z,76.92
2023-03-08T03:29:00.765Z,76.88
2023-03-08T03:34:04.082Z,77.38
2023-03-08T03:39:08.796Z,77.32
2023-03-08T03:44:12.014Z,77.10
2023-03-08T03:49:15.192Z,76.39
2023-03-08T03:54:19.873Z,75.84
2023-03-08T03:59:25.661Z,77.61
2023-03-08T04:04:29.768Z,77.52
2023-03-08T04:09:34.737Z,76.68
2023-03-08T04:14:39.755Z,75.92
2023-03-08T04:19:42.958Z,76.04
2023-03-08T04:24:47.599Z,75.58
2023-03-08T04:29:50.802Z,75.39
2023-03-08T04:34:54.096Z,75.69
2023-03-08T04:39:58.697Z,75.31
2023-03-08T04:45:01.992Z,75.87
2023-03-08T04:50:05.795Z,74.98
2023-03-08T04:55:10.990Z,75.59
2023-03-08T05:00:15.302Z,75.71
2023-03-08T05:05:18.747Z,75.41
2023-03-08T05:10:23.410Z,75.38
2023-03-08T05:15:26.800Z,75.13
2023-03-08T05:20:30.121Z,75.01
2023-03-08T05:25:34.976Z,75.07
2023-03-08T05:30:37.995Z,75.14
2023-03-08T05:35:41.231Z,75.11
2023-03-08T05:40:45.839Z,74.67
2023-03-08T05:45:57.163Z,75.04
2023-03-08T05:51:00.788Z,75.00
2023-03-08T05:56:11.522Z,74.48
2023-03-08T06:01:17.022Z,74.17
2023-03-08T06:06:21.669Z,74.26
2023-03-08T06:11:26.597Z,73.84
2023-03-08T06:16:29.891Z,74.29
2023-03-08T06:21:33.129Z,73.82
2023-03-08T06:26:37.766Z,73.34
2023-03-08T06:31:41.144Z,73.06
2023-03-08T06:36:44.612Z,72.96
2023-03-08T06:41:49.260Z,73.20
2023-03-08T06:46:52.531Z,74.35
2023-03-08T06:51:55.758Z,76.63
2023-03-08T06:57:00.434Z,77.84
2023-03-08T07:02:03.714Z,79.27
2023-03-08T07:07:08.166Z,80.24
2023-03-08T07:12:12.868Z,80.50
2023-03-08T07:17:16.170Z,80.10
2023-03-08T07:22:19.345Z,79.29
2023-03-08T07:27:24.008Z,79.22
2023-03-08T07:32:29.269Z,79.00
2023-03-08T07:37:32.617Z,78.26
2023-03-08T07:42:37.254Z,78.80
2023-03-08T07:47:40.692Z,80.79
2023-03-08T07:52:43.964Z,81.24
2023-03-08T07:57:48.668Z,81.08
2023-03-08T08:02:54.487Z,80.40
2023-03-08T08:07:57.707Z,80.40
2023-03-08T08:13:02.359Z,80.74
2023-03-08T08:18:05.993Z,81.70
2023-03-08T08:23:09.521Z,82.09
2023-03-08T08:28:14.219Z,81.55
2023-03-08T08:33:17.475Z,81.00
2023-03-08T08:38:20.895Z,81.22
2023-03-08T08:43:25.559Z,81.94
2023-03-08T08:48:28.967Z,81.41
2023-03-08T08:53:32.393Z,81.67
2023-03-08T08:58:37.080Z,79.85
2023-03-08T09:03:40.323Z,79.22
2023-03-08T09:08:43.580Z,77.44
2023-03-08T09:13:48.314Z,76.93
2023-03-08T09:18:52.168Z,78.74
2023-03-08T09:23:55.808Z,81.45
2023-03-08T09:29:05.208Z,82.10
2023-03-08T09:34:09.958Z,81.66
2023-03-08T09:39:15.819Z,82.04
2023-03-08T09:44:49.651Z,82.33
2023-03-08T09:49:56.734Z,81.03
2023-03-08T09:55:01.097Z,81.10
2023-03-08T10:00:11.849Z,80.70
2023-03-08T10:05:21.169Z,81.49
2023-03-08T10:10:41.456Z,81.23
2023-03-08T10:15:51.249Z,81.10
2023-03-08T10:20:54.969Z,79.76
2023-03-08T10:25:58.091Z,75.61
2023-03-08T10:31:04.849Z,69.54
2023-03-08T10:36:12.876Z,71.76
2023-03-08T10:41:18.827Z,73.48
2023-03-08T10:46:25.498Z,75.71
2023-03-08T10:51:30.460Z,76.85
2023-03-08T10:56:38.993Z,79.65
2023-03-08T11:01:52.671Z,80.15
2023-03-08T11:06:55.860Z,80.22
2023-03-08T11:12:00.255Z,80.33
2023-03-08T11:17:17.147Z,80.95
2023-03-08T11:22:34.716Z,80.24
2023-03-08T11:27:55.101Z,79.38
2023-03-08T11:33:23.600Z,80.36
2023-03-08T11:38:29.076Z,81.52
2023-03-08T11:43:49.156Z,81.68
2023-03-08T11:49:04.497Z,80.31
2023-03-08T11:54:18.165Z,80.81
2023-03-08T11:59:30.516Z,80.02
2023-03-08T12:04:40.755Z,80.99
2023-03-08T12:09:53.164Z,81.46
2023-03-08T12:15:00.696Z,81.79
2023-03-08T12:20:08.319Z,81.95
2023-03-08T12:25:22.235Z,82.83
2023-03-08T12:30:36.670Z,83.08
2023-03-08T12:35:52.861Z,83.04
2023-03-08T12:40:56.900Z,83.43
2023-03-08T12:46:06.445Z,83.50
2023-03-08T12:51:24.195Z,84.54
2023-03-08T12:56:31.804Z,83.45
2023-03-08T13:01:38.744Z,83.24
2023-03-08T13:07:19.272Z,83.48
2023-03-08T13:12:29.250Z,83.33
2023-03-08T13:17:39.505Z,82.61
2023-03-08T13:22:55.905Z,83.17
2023-03-08T13:28:05.130Z,82.94
2023-03-08T13:33:10.677Z,83.00
2023-03-08T13:38:23.190Z,83.20
2023-03-08T13:43:27.773Z,83.51
2023-03-08T13:48:34.938Z,82.48
2023-03-08T13:53:40.497Z,83.26
2023-03-08T13:58:48.596Z,83.99
2023-03-08T14:03:52.695Z,84.93
2023-03-08T14:09:00.675Z,84.87
2023-03-08T14:14:07.333Z,85.27
2023-03-08T14:19:12.599Z,85.53
2023-03-08T14:24:22.507Z,85.90
2023-03-08T14:29:27.241Z,85.83
2023-03-08T14:34:33.918Z,85.77
2023-03-08T14:39:40.700Z,85.42
2023-03-08T14:44:44.188Z,86.27
2023-03-08T14:49:56.905Z,86.33
2023-03-08T14:55:03.384Z,87.00
2023-03-08T15:00:14.267Z,87.39
2023-03-08T15:05:28.401Z,87.06
2023-03-08T15:10:38.054Z,87.04
2023-03-08T15:15:41.196Z,86.97
2023-03-08T15:20:49.478Z,86.83
2023-03-08T15:25:54.561Z,86.12
2023-03-08T15:30:57.790Z,85.48
2023-03-08T15:36:01.012Z,85.61
2023-03-08T15:41:05.805Z,85.58
2023-03-08T15:46:11.527Z,86.39
2023-03-08T15:51:19.610Z,86.73
2023-03-08T15:56:26.094Z,86.26
2023-03-08T16:01:29.273Z,85.66
2023-03-08T16:06:32.429Z,86.02
2023-03-08T16:11:36.933Z,86.06
2023-03-08T16:16:45.586Z,86.11
2023-03-08T16:21:49.140Z,85.81
2023-03-08T16:26:53.701Z,85.61
2023-03-08T16:31:58.586Z,85.60
2023-03-08T16:37:01.774Z,85.53
2023-03-08T16:42:06.470Z,85.47
2023-03-08T16:47:09.460Z,85.97
2023-03-08T16:52:12.924Z,85.90
2023-03-08T16:57:20.111Z,86.72
2023-03-08T17:02:23.520Z,85.98
2023-03-08T17:07:26.636Z,85.60
2023-03-08T17:12:31.233Z,85.23
2023-03-08T17:17:34.382Z,85.70
2023-03-08T17:22:37.504Z,85.59
2023-03-08T17:27:42.060Z,86.49
2023-03-08T17:32:45.199Z,86.53
2023-03-08T17:37:50.190Z,86.35
2023-03-08T17:42:56.760Z,85.70
2023-03-08T17:48:02.816Z,85.40
2023-03-08T17:53:06.059Z,85.69
2023-03-08T17:58:10.851Z,85.17
2023-03-08T18:03:13.727Z,84.77
2023-03-08T18:08:16.903Z,83.95
2023-03-08T18:13:21.440Z,84.43
2023-03-08T18:18:24.596Z,84.81
2023-03-08T18:23:29.681Z,83.79
2023-03-08T18:28:35.848Z,84.02
2023-03-08T18:33:39.420Z,83.86
2023-03-08T18:38:43.193Z,83.48
2023-03-08T18:43:47.729Z,83.19
2023-03-08T18:48:52.116Z,82.49
2023-03-08T18:53:56.049Z,82.32
2023-03-08T18:59:02.963Z,82.48
2023-03-08T19:04:08.120Z,82.65
2023-03-08T19:09:12.626Z,82.18
2023-03-08T19:14:18.173Z,81.88
2023-03-08T19:19:21.441Z,81.61
2023-03-08T19:24:24.669Z,81.97
2023-03-08T19:29:31.387Z,81.75
2023-03-08T19:34:36.486Z,81.64
2023-03-08T19:39:39.669Z,81.60
2023-03-08T19:44:48.387Z,81.67
2023-03-08T19:49:51.663Z,81.93
2023-03-08T19:54:54.968Z,81.63
2023-03-08T20:00:01.367Z,82.13
2023-03-08T20:05:04.713Z,82.13
2023-03-08T20:10:16.116Z,82.57
2023-03-08T20:15:21.028Z,82.59
2023-03-08T20:20:24.316Z,81.52
2023-03-08T20:25:27.771Z,82.50
2023-03-08T20:30:32.324Z,82.61
2023-03-08T20:35:35.528Z,82.84
2023-03-08T20:40:39.774Z,83.13
2023-03-08T20:45:44.427Z,83.00
2023-03-08T20:50:47.665Z,82.77
2023-03-08T20:55:50.785Z,82.48
2023-03-08T21:00:55.308Z,82.97
2023-03-08T21:05:58.405Z,82.55
2023-03-08T21:11:01.508Z,82.52
2023-03-08T21:16:08.608Z,82.80
2023-03-08T21:21:18.806Z,82.85
2023-03-08T21:26:22.450Z,82.52
2023-03-08T21:31:27.044Z,82.52
2023-03-08T21:36:30.296Z,82.47
2023-03-08T21:41:35.208Z,81.92
2023-03-08T21:46:40.735Z,82.19
2023-03-08T21:51:43.961Z,82.34
2023-03-08T21:56:47.329Z,82.79
2023-03-08T22:01:54.208Z,83.10
2023-03-08T22:06:57.481Z,83.01
2023-03-08T22:12:00.638Z,83.36
2023-03-08T22:17:05.206Z,83.70
2023-03-08T22:22:09.993Z,83.63
2023-03-08T22:27:13.913Z,83.24
2023-03-08T22:32:18.529Z,83.28
2023-03-08T22:37:21.696Z,83.51
2023-03-08T22:42:24.862Z,83.77
2023-03-08T22:47:29.580Z,83.36
2023-03-08T22:52:32.877Z,83.37
2023-03-08T22:57:37.598Z,83.39
2023-03-08T23:02:42.404Z,83.55
2023-03-08T23:07:45.672Z,84.17
2023-03-08T23:12:48.919Z,83.51
2023-03-08T23:17:53.500Z,83.59
2023-03-08T23:22:56.662Z,84.19
2023-03-08T23:27:59.821Z,84.22
2023-03-08T23:33:04.374Z,84.32
2023-03-08T23:38:07.512Z,84.71
2023-03-08T23:43:10.662Z,84.95
2023-03-08T23:48:15.233Z,84.86
2023-03-08T23:53:18.491Z,84.63
2023-03-08T23:58:21.603Z,84.81
